createdAt,value
2022-11-22T00:02:03.956Z,30.70
2022-11-22T00:04:34.954Z,29.10
2022-11-22T00:07:05.977Z,30.80
2022-11-22T00:09:36.961Z,30.70
2022-11-22T00:12:08.071Z,30.90
2022-11-22T00:14:39.036Z,32.30
2022-11-22T00:17:09.988Z,32.90
2022-11-22T00:19:41.748Z,30.90
2022-11-22T00:22:13.003Z,31.20
2022-11-22T00:24:46.367Z,31.90
2022-11-22T00:27:17.392Z,29.90
2022-11-22T00:29:48.387Z,22.30
2022-11-22T00:32:19.752Z,30.10
2022-11-22T00:34:51.178Z,30.90
2022-11-22T00:37:22.151Z,31.70
2022-11-22T00:39:53.112Z,29.40
2022-11-22T00:42:24.224Z,30.50
2022-11-22T00:44:55.178Z,30.80
2022-11-22T00:47:26.182Z,30.50
2022-11-22T00:49:57.154Z,31.10
2022-11-22T00:52:28.105Z,30.10
2022-11-22T00:54:59.067Z,29.90
2022-11-22T00:57:30.059Z,32.60
2022-11-22T01:00:01.053Z,30.10
2022-11-22T01:02:32.033Z,33.00
2022-11-22T01:05:02.989Z,30.80
2022-11-22T01:07:34.023Z,31.20
2022-11-22T01:10:05.545Z,31.60
2022-11-22T01:12:36.625Z,31.00
2022-11-22T01:15:09.028Z,32.00
2022-11-22T01:17:40.125Z,28.50
2022-11-22T01:20:13.136Z,31.40
2022-11-22T01:22:44.097Z,29.70
2022-11-22T01:25:15.318Z,31.30
2022-11-22T01:27:46.364Z,31.60
2022-11-22T01:30:18.525Z,32.20
2022-11-22T01:32:49.473Z,31.50
2022-11-22T01:35:20.719Z,30.20
2022-11-22T01:37:51.670Z,31.50
2022-11-22T01:40:22.727Z,31.30
2022-11-22T01:42:56.629Z,32.90
2022-11-22T01:45:51.993Z,31.40
2022-11-22T01:48:31.858Z,31.00
2022-11-22T01:51:08.213Z,32.30
2022-11-22T01:53:41.843Z,30.00
2022-11-22T01:56:17.053Z,27.40
2022-11-22T01:58:52.282Z,34.00
2022-11-22T02:01:23.596Z,31.60
2022-11-22T02:03:57.560Z,30.60
2022-11-22T02:06:35.306Z,31.80
2022-11-22T02:09:11.711Z,31.50
2022-11-22T02:11:47.305Z,30.00
2022-11-22T02:14:20.537Z,30.30
2022-11-22T02:16:51.696Z,33.00
2022-11-22T02:19:30.719Z,31.80
2022-11-22T02:22:10.366Z,31.50
2022-11-22T02:24:47.856Z,33.10
2022-11-22T02:27:19.246Z,34.20
2022-11-22T02:29:52.598Z,35.90
2022-11-22T02:32:23.881Z,31.80
2022-11-22T02:34:54.939Z,33.60
2022-11-22T02:37:29.847Z,34.70
2022-11-22T02:40:06.236Z,33.00
2022-11-22T02:42:38.584Z,32.90
2022-11-22T02:45:10.961Z,34.20
2022-11-22T02:47:41.896Z,34.60
2022-11-22T02:50:13.090Z,33.70
2022-11-22T02:52:44.013Z,32.80
2022-11-22T02:55:15.150Z,35.00
2022-11-22T02:57:46.118Z,35.60
2022-11-22T03:00:18.794Z,33.50
2022-11-22T03:02:53.385Z,34.80
2022-11-22T03:05:27.299Z,34.20
2022-11-22T03:07:58.372Z,36.70
2022-11-22T03:10:29.468Z,35.10
2022-11-22T03:13:00.824Z,36.10
2022-11-22T03:15:32.007Z,35.10
2022-11-22T03:18:04.954Z,36.30
2022-11-22T03:20:36.831Z,36.60
2022-11-22T03:23:07.800Z,35.90
2022-11-22T03:25:41.093Z,35.00
2022-11-22T03:28:12.223Z,34.50
2022-11-22T03:30:44.052Z,37.90
2022-11-22T03:33:15.122Z,36.50
2022-11-22T03:35:46.278Z,36.20
2022-11-22T03:38:17.251Z,35.30
2022-11-22T03:40:50.006Z,33.50
2022-11-22T03:43:21.220Z,35.30
2022-11-22T03:45:52.137Z,36.70
2022-11-22T03:48:23.102Z,35.10
2022-11-22T03:50:54.597Z,37.30
2022-11-22T03:53:25.578Z,32.00
2022-11-22T03:55:56.576Z,36.30
2022-11-22T03:58:27.607Z,35.90
2022-11-22T04:00:58.855Z,37.40
2022-11-22T04:03:29.969Z,37.20
2022-11-22T04:06:01.122Z,37.50
2022-11-22T04:08:32.296Z,35.10
2022-11-22T04:11:03.404Z,37.90
2022-11-22T04:13:48.297Z,36.80
2022-11-22T04:16:19.441Z,35.00
2022-11-22T04:18:50.378Z,34.80
2022-11-22T04:21:36.357Z,36.70
2022-11-22T04:24:27.136Z,34.60
2022-11-22T04:26:58.799Z,34.80
2022-11-22T04:29:30.670Z,36.90
2022-11-22T04:32:19.339Z,35.90
2022-11-22T04:34:50.376Z,35.90
2022-11-22T04:37:21.379Z,35.90
2022-11-22T04:39:52.457Z,36.00
2022-11-22T04:42:40.893Z,33.00
2022-11-22T04:45:13.358Z,38.00
2022-11-22T04:48:02.959Z,32.70
2022-11-22T04:50:52.361Z,32.60
2022-11-22T04:53:23.277Z,33.90
2022-11-22T04:55:54.734Z,33.80
2022-11-22T04:58:26.243Z,32.60
2022-11-22T05:00:57.317Z,36.60
2022-11-22T05:03:28.703Z,34.00
2022-11-22T05:06:03.943Z,36.60
2022-11-22T05:08:35.493Z,34.60
2022-11-22T05:11:06.588Z,34.90
2022-11-22T05:13:39.626Z,36.90
2022-11-22T05:16:12.920Z,35.40
2022-11-22T05:18:59.076Z,35.10
2022-11-22T05:21:30.955Z,34.50
2022-11-22T05:24:02.178Z,36.70
2022-11-22T05:26:35.634Z,35.70
2022-11-22T05:29:09.206Z,35.10
2022-11-22T05:31:45.705Z,34.50
2022-11-22T05:34:20.918Z,37.20
2022-11-22T05:36:51.941Z,36.60
2022-11-22T05:39:23.134Z,35.80
2022-11-22T05:41:57.193Z,35.60
2022-11-22T05:44:28.291Z,34.40
2022-11-22T05:47:01.845Z,35.70
2022-11-22T05:49:33.465Z,37.50
2022-11-22T05:52:04.773Z,35.30
2022-11-22T05:54:35.735Z,36.70
2022-11-22T05:57:06.983Z,34.80
2022-11-22T05:59:43.763Z,34.40
2022-11-22T06:02:15.204Z,36.70
2022-11-22T06:04:46.238Z,38.40
2022-11-22T06:07:17.355Z,40.00
2022-11-22T06:09:48.293Z,37.00
2022-11-22T06:12:19.301Z,36.70
2022-11-22T06:14:50.320Z,37.90
2022-11-22T06:17:21.367Z,37.60
2022-11-22T06:19:52.467Z,38.70
2022-11-22T06:22:23.418Z,36.60
2022-11-22T06:24:55.228Z,36.90
2022-11-22T06:27:26.280Z,37.40
2022-11-22T06:29:57.340Z,37.50
2022-11-22T06:32:28.763Z,38.80
2022-11-22T06:35:01.119Z,39.60
2022-11-22T06:37:32.641Z,38.50
2022-11-22T06:40:03.809Z,40.30
2022-11-22T06:42:35.947Z,40.50
2022-11-22T06:45:13.320Z,38.20
2022-11-22T06:47:45.617Z,37.40
2022-11-22T06:50:21.597Z,39.60
2022-11-22T06:52:57.908Z,36.50
2022-11-22T06:55:49.609Z,36.70
2022-11-22T06:58:20.901Z,35.00
2022-11-22T07:00:52.188Z,37.30
2022-11-22T07:03:23.243Z,38.50
2022-11-22T07:05:54.811Z,36.70
2022-11-22T07:08:28.532Z,38.50
2022-11-22T07:11:04.689Z,35.20
2022-11-22T07:13:36.713Z,35.70
2022-11-22T07:16:10.309Z,36.00
2022-11-22T07:18:42.160Z,37.60
2022-11-22T07:21:15.555Z,39.00
2022-11-22T07:23:49.445Z,38.60
2022-11-22T07:26:44.629Z,40.00
2022-11-22T07:29:15.713Z,41.00
2022-11-22T07:31:48.900Z,39.20
2022-11-22T07:34:22.442Z,42.80
2022-11-22T07:36:58.740Z,39.70
2022-11-22T07:39:33.285Z,42.90
2022-11-22T07:42:04.565Z,40.90
2022-11-22T07:44:35.404Z,42.70
2022-11-22T07:47:06.665Z,41.50
2022-11-22T07:49:38.823Z,41.60
2022-11-22T07:52:11.233Z,39.00
2022-11-22T07:54:42.603Z,41.80
2022-11-22T07:57:14.094Z,39.30
2022-11-22T07:59:45.274Z,39.40
2022-11-22T08:02:18.820Z,39.00
2022-11-22T08:04:55.144Z,38.30
2022-11-22T08:07:27.850Z,39.00
2022-11-22T08:09:59.057Z,43.50
2022-11-22T08:12:30.095Z,39.70
2022-11-22T08:15:02.226Z,35.90
2022-11-22T08:17:33.048Z,42.50
2022-11-22T08:20:05.569Z,64.00
2022-11-22T08:22:39.235Z,43.90
2022-11-22T08:25:14.121Z,41.40
2022-11-22T08:27:46.391Z,40.70
2022-11-22T08:30:22.259Z,42.10
2022-11-22T08:32:59.138Z,40.30
2022-11-22T08:35:30.177Z,38.70
2022-11-22T08:38:01.754Z,40.30
2022-11-22T08:41:14.111Z,39.10
2022-11-22T08:43:45.952Z,41.00
2022-11-22T08:46:18.546Z,43.80
2022-11-22T08:48:53.324Z,39.20
2022-11-22T08:51:24.579Z,41.90
2022-11-22T08:53:58.383Z,42.40
2022-11-22T08:56:30.251Z,41.00
2022-11-22T08:59:01.617Z,43.30
2022-11-22T09:01:33.456Z,40.90
2022-11-22T09:04:04.807Z,40.90
2022-11-22T09:09:37.368Z,41.50
2022-11-22T09:12:10.303Z,42.20
2022-11-22T09:14:42.026Z,42.00
2022-11-22T09:17:17.929Z,44.20
2022-11-22T09:19:49.445Z,42.20
2022-11-22T09:22:24.027Z,44.40
2022-11-22T09:24:59.010Z,44.50
2022-11-22T09:27:33.181Z,44.40
2022-11-22T09:30:05.715Z,42.40
2022-11-22T09:32:36.819Z,41.10
2022-11-22T09:35:09.855Z,42.20
2022-11-22T09:37:41.424Z,42.90
2022-11-22T09:40:20.118Z,42.70
2022-11-22T09:43:38.081Z,42.30
2022-11-22T09:46:35.678Z,44.30
2022-11-22T09:49:29.848Z,42.40
2022-11-22T09:52:09.114Z,40.10
2022-11-22T09:54:47.911Z,41.50
2022-11-22T09:57:26.979Z,41.80
2022-11-22T10:00:06.523Z,40.40
2022-11-22T10:03:00.299Z,38.90
2022-11-22T10:05:41.362Z,41.50
2022-11-22T10:08:22.444Z,41.10
2022-11-22T10:10:58.000Z,40.40
2022-11-22T10:13:37.261Z,40.00
2022-11-22T10:16:15.826Z,40.60
2022-11-22T10:18:55.064Z,39.50
2022-11-22T10:21:27.285Z,41.30
2022-11-22T10:23:58.480Z,38.80
2022-11-22T10:26:32.932Z,40.80
2022-11-22T10:29:16.201Z,37.30
2022-11-22T10:31:58.023Z,37.10
2022-11-22T10:34:49.785Z,35.70
2022-11-22T10:37:33.610Z,36.20
2022-11-22T10:40:14.224Z,37.60
2022-11-22T10:43:00.121Z,39.90
2022-11-22T10:45:36.454Z,38.00
2022-11-22T10:48:22.202Z,38.30
2022-11-22T10:53:38.401Z,37.00
2022-11-22T10:56:16.729Z,34.40
2022-11-22T10:58:58.231Z,36.30
2022-11-22T11:01:37.195Z,34.00
2022-11-22T11:04:11.130Z,34.00
2022-11-22T11:12:41.918Z,21.80
2022-11-22T11:15:22.287Z,26.30
2022-11-22T11:17:59.859Z,24.90
2022-11-22T11:20:36.538Z,23.20
2022-11-22T11:23:14.693Z,22.30
2022-11-22T11:25:47.602Z,23.00
2022-11-22T11:28:22.784Z,23.80
2022-11-22T11:30:56.487Z,24.50
2022-11-22T11:33:33.542Z,23.60
2022-11-22T11:36:11.956Z,26.10
2022-11-22T11:38:54.344Z,29.00
2022-11-22T11:41:29.676Z,31.30
2022-11-22T11:44:04.364Z,27.80
2022-11-22T11:46:49.267Z,26.10
2022-11-22T11:49:22.608Z,25.10
2022-11-22T11:51:58.627Z,25.90
2022-11-22T11:54:44.237Z,27.20
2022-11-22T11:57:20.205Z,26.10
2022-11-22T11:59:53.407Z,26.70
2022-11-22T12:02:26.354Z,24.40
2022-11-22T12:05:01.042Z,25.80
2022-11-22T12:07:43.772Z,24.90
2022-11-22T12:10:41.737Z,26.00
2022-11-22T12:13:22.179Z,23.90
2022-11-22T12:15:59.268Z,27.00
2022-11-22T12:18:42.121Z,29.20
2022-11-22T12:21:25.178Z,24.80
2022-11-22T12:24:26.952Z,26.60
2022-11-22T12:26:55.262Z,29.10
2022-11-22T12:29:26.684Z,26.40
2022-11-22T12:32:03.275Z,28.80
2022-11-22T12:34:39.014Z,30.20
2022-11-22T12:37:16.327Z,28.00
2022-11-22T12:39:50.507Z,28.30
2022-11-22T12:42:25.361Z,30.20
2022-11-22T12:45:02.554Z,29.20
2022-11-22T12:47:39.028Z,28.20
2022-11-22T12:50:21.925Z,26.70
2022-11-22T12:52:58.110Z,27.20
2022-11-22T12:55:32.735Z,27.20
2022-11-22T12:58:16.786Z,27.10
2022-11-22T13:01:01.980Z,30.10
2022-11-22T13:03:40.234Z,30.20
2022-11-22T13:06:12.130Z,27.50
2022-11-22T13:08:54.615Z,27.50
2022-11-22T13:11:32.371Z,27.20
2022-11-22T13:14:17.743Z,26.80
2022-11-22T13:16:52.574Z,24.50
2022-11-22T13:19:27.106Z,24.60
2022-11-22T13:22:14.986Z,24.60
2022-11-22T13:25:09.920Z,21.00
2022-11-22T13:27:45.692Z,22.00
2022-11-22T13:30:23.476Z,22.10
2022-11-22T13:32:56.960Z,22.50
2022-11-22T13:35:32.990Z,21.30
2022-11-22T13:38:06.441Z,22.40
2022-11-22T13:40:43.028Z,22.80
2022-11-22T13:43:53.266Z,21.60
2022-11-22T13:46:53.397Z,20.10
2022-11-22T13:49:39.170Z,18.90
2022-11-22T13:52:45.057Z,19.60
2022-11-22T13:55:42.445Z,19.80
2022-11-22T13:58:54.713Z,17.10
2022-11-22T14:01:58.338Z,17.70
2022-11-22T14:04:39.174Z,16.10
2022-11-22T14:07:30.062Z,19.20
2022-11-22T14:10:03.442Z,19.20
2022-11-22T14:12:49.393Z,20.40
2022-11-22T14:15:50.213Z,17.00
2022-11-22T14:18:41.034Z,19.60
2022-11-22T14:21:16.383Z,15.50
2022-11-22T14:26:34.888Z,16.40
2022-11-22T14:29:54.313Z,19.40
2022-11-22T14:32:27.492Z,20.10
2022-11-22T14:35:30.456Z,19.50
2022-11-22T14:38:21.560Z,21.20
2022-11-22T14:40:53.073Z,21.10
2022-11-22T14:43:35.069Z,20.70
2022-11-22T14:46:37.317Z,20.30
2022-11-22T14:49:12.065Z,19.90
2022-11-22T14:51:43.451Z,19.00
2022-11-22T14:54:23.352Z,21.50
2022-11-22T14:57:03.966Z,19.20
2022-11-22T15:00:04.582Z,20.50
2022-11-22T15:03:08.918Z,21.60
2022-11-22T15:09:18.391Z,21.90
2022-11-22T15:09:33.448Z,22.30
2022-11-22T15:12:16.656Z,21.00
2022-11-22T15:57:32.077Z,21.90
2022-11-22T16:00:10.125Z,25.30
2022-11-22T16:02:51.217Z,25.40
2022-11-22T16:06:06.188Z,25.40
2022-11-22T16:08:27.825Z,24.00
2022-11-22T16:11:05.222Z,23.20
2022-11-22T16:13:38.542Z,23.80
2022-11-22T16:16:27.897Z,23.40
2022-11-22T16:24:31.914Z,26.50
2022-11-22T16:27:06.143Z,24.40
2022-11-22T16:29:38.600Z,23.00
2022-11-22T16:32:14.783Z,25.30
2022-11-22T16:34:47.045Z,25.60
2022-11-22T16:37:36.427Z,27.40
2022-11-22T16:40:14.043Z,26.40
2022-11-22T16:42:45.289Z,22.30
2022-11-22T16:45:20.123Z,22.10
2022-11-22T16:48:03.848Z,24.80
2022-11-22T16:50:43.620Z,24.30
2022-11-22T16:53:17.081Z,19.90
2022-11-22T16:55:49.501Z,26.70
2022-11-22T16:58:25.098Z,23.50
2022-11-22T17:00:57.063Z,25.90
2022-11-22T17:03:31.871Z,23.80
2022-11-22T17:06:03.943Z,24.30
2022-11-22T17:08:34.932Z,23.90
2022-11-22T17:11:05.931Z,20.50
2022-11-22T17:13:37.242Z,23.10
2022-11-22T17:16:10.715Z,16.90
2022-11-22T17:18:42.290Z,27.20
2022-11-22T17:21:19.380Z,19.80
2022-11-22T17:23:51.425Z,24.90
2022-11-22T17:26:22.786Z,25.00
2022-11-22T17:28:54.376Z,25.60
2022-11-22T17:31:28.769Z,25.30
2022-11-22T17:34:00.797Z,27.40
2022-11-22T17:36:33.302Z,27.50
2022-11-22T17:39:07.013Z,26.80
2022-11-22T17:41:38.699Z,25.30
2022-11-22T17:44:15.956Z,26.40
2022-11-22T17:46:47.717Z,23.80
2022-11-22T17:49:18.748Z,24.90
2022-11-22T17:51:51.039Z,28.90
2022-11-22T17:54:22.097Z,29.90
2022-11-22T17:56:53.319Z,30.70
2022-11-22T17:59:25.469Z,23.70
2022-11-22T18:01:56.445Z,26.90
2022-11-22T18:04:27.799Z,26.90
2022-11-22T18:06:59.031Z,27.50
2022-11-22T18:09:30.378Z,30.60
2022-11-22T18:12:01.929Z,28.40
2022-11-22T18:14:34.819Z,25.90
2022-11-22T18:17:06.269Z,28.50
2022-11-22T18:19:37.136Z,28.80
2022-11-22T18:22:08.099Z,27.20
2022-11-22T18:24:40.479Z,31.60
2022-11-22T18:27:20.327Z,29.40
2022-11-22T18:29:55.674Z,24.10
2022-11-22T18:32:27.133Z,20.30
2022-11-22T18:34:58.303Z,19.10
2022-11-22T18:37:29.659Z,27.00
2022-11-22T18:40:00.921Z,24.20
2022-11-22T18:42:32.411Z,28.00
2022-11-22T18:45:08.803Z,27.90
2022-11-22T18:47:39.891Z,29.30
2022-11-22T18:50:16.376Z,26.70
2022-11-22T18:52:47.544Z,27.30
2022-11-22T18:55:22.968Z,27.00
2022-11-22T18:57:54.581Z,30.70
2022-11-22T19:00:26.678Z,24.90
2022-11-22T19:02:58.866Z,30.90
2022-11-22T19:05:30.059Z,29.40
2022-11-22T19:08:01.078Z,29.40
2022-11-22T19:10:32.008Z,25.60
2022-11-22T19:13:03.039Z,29.00
2022-11-22T19:15:33.933Z,28.20
2022-11-22T19:18:05.071Z,30.50
2022-11-22T19:20:54.500Z,31.10
2022-11-22T19:23:26.487Z,29.20
2022-11-22T19:25:57.706Z,27.90
2022-11-22T19:28:30.471Z,30.90
2022-11-22T19:31:07.751Z,25.00
2022-11-22T19:33:39.086Z,31.20
2022-11-22T19:36:14.437Z,24.70
2022-11-22T19:41:17.887Z,29.40
2022-11-22T19:43:49.928Z,22.40
2022-11-22T19:46:21.478Z,25.20
2022-11-22T19:48:55.209Z,32.40
2022-11-22T19:51:27.674Z,32.40
2022-11-22T19:54:02.057Z,30.30
2022-11-22T19:56:35.538Z,24.10
2022-11-22T19:59:09.924Z,27.00
2022-11-22T20:01:40.968Z,24.60
2022-11-22T20:04:15.311Z,30.00
2022-11-22T20:06:50.119Z,31.50
2022-11-22T20:09:22.461Z,25.40
2022-11-22T20:11:53.613Z,27.50
2022-11-22T20:14:24.927Z,32.70
2022-11-22T20:16:55.852Z,26.80
2022-11-22T20:19:31.149Z,25.90
2022-11-22T20:22:04.982Z,29.30
2022-11-22T20:24:36.100Z,28.60
2022-11-22T20:27:09.320Z,24.80
2022-11-22T20:29:40.298Z,30.10
2022-11-22T20:32:12.378Z,28.70
2022-11-22T20:34:43.895Z,24.30
2022-11-22T20:37:15.221Z,28.60
2022-11-22T20:39:47.319Z,30.60
2022-11-22T20:42:34.837Z,30.20
2022-11-22T20:45:10.701Z,30.60
2022-11-22T20:47:47.774Z,32.60
2022-11-22T20:50:20.958Z,24.70
2022-11-22T20:52:52.177Z,27.80
2022-11-22T20:55:23.102Z,31.40
2022-11-22T20:57:54.223Z,30.50
2022-11-22T21:00:25.557Z,30.90
2022-11-22T21:02:56.676Z,31.70
2022-11-22T21:05:28.627Z,31.50
2022-11-22T21:08:05.037Z,30.50
2022-11-22T21:10:36.750Z,30.80
2022-11-22T21:13:07.947Z,30.60
2022-11-22T21:15:41.504Z,32.00
2022-11-22T21:18:28.625Z,31.20
2022-11-22T21:21:04.662Z,31.00
2022-11-22T21:23:36.628Z,31.40
2022-11-22T21:26:09.060Z,33.80
2022-11-22T21:28:45.149Z,31.30
2022-11-22T21:31:17.165Z,31.80
2022-11-22T21:33:52.730Z,33.30
2022-11-22T21:36:24.376Z,29.80
2022-11-22T21:38:55.330Z,28.80
2022-11-22T21:41:41.969Z,30.20
2022-11-22T21:44:14.105Z,33.40
2022-11-22T21:46:45.265Z,30.70
2022-11-22T21:49:16.258Z,23.80
2022-11-22T21:51:48.378Z,26.30
2022-11-22T21:54:19.408Z,32.50
2022-11-22T21:56:50.426Z,29.40
2022-11-22T21:59:21.679Z,31.10
2022-11-22T22:01:53.266Z,29.70
2022-11-22T22:04:24.546Z,28.70
2022-11-22T22:06:55.782Z,31.80
2022-11-22T22:09:26.789Z,32.00
2022-11-22T22:11:58.074Z,27.40
2022-11-22T22:14:29.830Z,30.60
2022-11-22T22:17:01.077Z,31.90
2022-11-22T22:19:33.087Z,30.60
2022-11-22T22:22:04.234Z,31.80
2022-11-22T22:24:35.144Z,32.40
2022-11-22T22:27:07.235Z,31.50
2022-11-22T22:29:38.353Z,31.90
2022-11-22T22:32:10.772Z,27.90
2022-11-22T22:34:41.883Z,28.20
2022-11-22T22:37:12.940Z,27.90
2022-11-22T22:39:43.970Z,25.50
2022-11-22T22:42:15.404Z,31.40
2022-11-22T22:44:46.459Z,30.10
2022-11-22T22:47:17.606Z,30.20
2022-11-22T22:49:48.421Z,31.80
2022-11-22T22:52:19.793Z,32.20
2022-11-22T22:54:50.725Z,32.60
2022-11-22T22:57:21.592Z,29.70
2022-11-22T22:59:53.225Z,28.00
2022-11-22T23:02:24.174Z,29.90
2022-11-22T23:04:55.030Z,31.50
2022-11-22T23:07:25.837Z,32.60
2022-11-22T23:09:56.733Z,27.50
2022-11-22T23:12:27.730Z,28.10
2022-11-22T23:14:58.716Z,30.50
2022-11-22T23:17:29.662Z,30.60
2022-11-22T23:20:00.900Z,31.20
2022-11-22T23:22:31.796Z,30.80
2022-11-22T23:25:02.646Z,30.40
2022-11-22T23:27:33.484Z,29.00
2022-11-22T23:30:05.144Z,25.10
2022-11-22T23:32:36.184Z,30.20
2022-11-22T23:35:08.427Z,28.30
2022-11-22T23:37:39.229Z,28.70
2022-11-22T23:40:12.641Z,29.60
2022-11-22T23:42:43.392Z,29.60
2022-11-22T23:45:14.555Z,26.70
2022-11-22T23:47:45.708Z,29.50
2022-11-22T23:50:17.763Z,31.20
2022-11-22T23:52:48.640Z,30.30
2022-11-22T23:55:19.659Z,30.00
2022-11-22T23:57:50.532Z,30.20
